Time;durP1;ratioP1;P1;durP2;ratioP2;P2;SDS_P1;SDS_P2;PMS_P1;PMS_P2;Temp;Humidity;BMP_temperature;BMP_pressure;BME280_temperature;BME280_humidity;BME280_pressure;Samples;Min_cycle;Max_cycle;Signal;HPM_P1;HPM_P2
2022/12/17 13:07:21;;;;;;;19.17;12.40;;;-2.30;99.90;;;;;;4985182;28;20096;-81
2022/12/17 13:09:53;;;;;;;18.25;12.23;;;-2.20;99.90;;;;;;4976185;28;20025;-82
2022/12/17 13:12:34;;;;;;;21.08;14.02;;;-2.20;99.90;;;;;;4981883;28;20022;-79
2022/12/17 13:15:06;;;;;;;17.50;12.23;;;-2.20;99.90;;;;;;4994917;28;20025;-80
2022/12/17 13:17:38;;;;;;;22.65;11.95;;;-2.20;99.90;;;;;;4994442;28;20108;-80
2022/12/17 13:20:28;;;;;;;21.52;12.38;;;-2.20;99.90;;;;;;4994640;28;20109;-81
2022/12/17 13:23:09;;;;;;;19.33;13.43;;;-2.20;99.90;;;;;;5002196;28;20026;-80
2022/12/17 13:25:35;;;;;;;19.92;12.65;;;-2.20;99.90;;;;;;4976246;28;20038;-82
2022/12/17 13:28:01;;;;;;;23.85;14.00;;;-2.10;99.90;;;;;;4988526;28;20026;-85
2022/12/17 13:30:37;;;;;;;23.63;12.75;;;-2.10;99.90;;;;;;4978666;28;20041;-80
2022/12/17 13:33:31;;;;;;;19.58;13.10;;;-2.00;99.90;;;;;;4984514;28;20022;-80
2022/12/17 13:36:39;;;;;;;21.33;14.07;;;-2.00;99.90;;;;;;4977274;28;20019;-82
2022/12/17 13:39:14;;;;;;;19.65;13.05;;;-2.00;99.90;;;;;;4914660;29;20397;-84
2022/12/17 13:41:40;;;;;;;21.05;15.35;;;-2.00;99.90;;;;;;4914892;29;20034;-84
2022/12/17 13:44:39;;;;;;;19.80;12.48;;;-2.00;99.90;;;;;;4914498;29;20131;-84
2022/12/17 13:47:18;;;;;;;20.35;14.48;;;-2.00;99.90;;;;;;4915386;29;20056;-82
2022/12/17 13:49:51;;;;;;;22.65;14.25;;;-2.00;99.90;;;;;;4899096;29;20036;-84
2022/12/17 13:52:19;;;;;;;18.80;11.63;;;-2.00;99.90;;;;;;4914886;29;20039;-82
2022/12/17 13:54:45;;;;;;;16.83;10.90;;;-2.10;99.90;;;;;;4915695;29;20097;-83
2022/12/17 13:57:24;;;;;;;20.88;14.10;;;-2.20;99.90;;;;;;4919077;29;20071;-84
2022/12/17 13:59:58;;;;;;;19.75;12.45;;;-2.20;99.90;;;;;;4919389;29;20028;-82
2022/12/17 14:02:33;;;;;;;25.33;17.60;;;-2.30;99.90;;;;;;4916313;29;20115;-82
2022/12/17 14:05:01;;;;;;;22.67;12.77;;;-2.30;99.90;;;;;;4914287;29;20535;-80
2022/12/17 14:07:28;;;;;;;24.85;15.18;;;-2.30;99.90;;;;;;4914267;29;20470;-83
2022/12/17 14:09:55;;;;;;;15.27;10.65;;;-2.30;99.90;;;;;;4913425;29;20040;-81
2022/12/17 14:12:25;;;;;;;20.35;14.02;;;-2.30;99.90;;;;;;4913763;29;20444;-79
2022/12/17 14:15:01;;;;;;;20.42;12.45;;;-2.20;99.90;;;;;;4901773;28;20063;-82
2022/12/17 14:17:39;;;;;;;16.23;11.15;;;-2.20;99.90;;;;;;5000859;28;20700;-82
2022/12/17 14:20:12;;;;;;;26.52;14.40;;;-2.20;99.90;;;;;;4976122;28;20102;-84
2022/12/17 14:22:41;;;;;;;21.75;13.45;;;-2.30;99.90;;;;;;4976694;28;20089;-81
2022/12/17 14:25:35;;;;;;;21.30;14.18;;;-2.40;99.90;;;;;;4993777;28;20175;-84
2022/12/17 14:28:04;;;;;;;26.88;14.98;;;-2.40;99.90;;;;;;4994702;28;20037;-87
2022/12/17 14:30:37;;;;;;;25.48;15.07;;;-2.30;99.90;;;;;;4994009;28;20027;-83
2022/12/17 14:33:22;;;;;;;26.40;15.60;;;-2.30;99.90;;;;;;4984654;28;20026;-86
2022/12/17 14:35:51;;;;;;;23.25;14.48;;;-2.20;99.90;;;;;;4997906;28;20435;-83
2022/12/17 14:38:18;;;;;;;18.30;12.98;;;-2.20;99.90;;;;;;4994625;28;20034;-83
2022/12/17 14:40:44;;;;;;;20.95;15.30;;;-2.20;99.90;;;;;;4977283;28;20369;-84
2022/12/17 14:43:13;;;;;;;23.48;14.57;;;-2.30;99.90;;;;;;4991550;28;20022;-82
2022/12/17 14:46:19;;;;;;;21.33;14.35;;;-2.30;99.90;;;;;;4975986;28;20080;-83
2022/12/17 14:49:15;;;;;;;22.40;13.32;;;-2.30;99.90;;;;;;4994188;28;20447;-84
2022/12/17 14:51:43;;;;;;;25.55;15.27;;;-2.30;99.90;;;;;;4988129;28;20475;-83
2022/12/17 14:54:28;;;;;;;24.38;16.85;;;-2.30;99.90;;;;;;4994319;28;20018;-84
2022/12/17 14:56:55;;;;;;;23.50;14.68;;;-2.30;99.90;;;;;;4995253;28;20023;-82
2022/12/17 14:59:40;;;;;;;22.27;14.88;;;-2.30;99.90;;;;;;4980571;28;20029;-84
2022/12/17 15:02:17;;;;;;;28.08;15.75;;;-2.30;99.90;;;;;;4979785;28;20154;-83
2022/12/17 15:04:46;;;;;;;22.35;15.40;;;-2.30;99.90;;;;;;4995589;28;20369;-82
2022/12/17 15:07:27;;;;;;;24.98;17.20;;;-2.30;99.90;;;;;;4978767;28;20388;-80
2022/12/17 15:09:54;;;;;;;21.50;13.05;;;-2.30;99.90;;;;;;4991177;28;20034;-81
2022/12/17 15:12:21;;;;;;;21.92;12.93;;;-2.30;99.90;;;;;;4993246;28;20026;-80
2022/12/17 15:14:48;;;;;;;19.58;14.55;;;-2.20;99.90;;;;;;5001350;28;20030;-81
2022/12/17 15:17:14;;;;;;;21.25;13.43;;;-2.30;99.90;;;;;;4998420;28;20026;-81
2022/12/17 15:19:43;;;;;;;30.20;20.05;;;-2.30;99.90;;;;;;4985986;28;20019;-81
2022/12/17 15:22:16;;;;;;;25.83;18.60;;;-2.30;99.90;;;;;;4993586;28;20057;-82
2022/12/17 15:24:44;;;;;;;22.27;14.07;;;-2.30;99.90;;;;;;4975205;28;20553;-81
2022/12/17 15:27:15;;;;;;;22.25;15.63;;;-2.30;99.90;;;;;;4992867;28;20018;-80
2022/12/17 15:29:41;;;;;;;22.00;11.35;;;-2.30;99.90;;;;;;4993136;28;20542;-84
2022/12/17 15:32:18;;;;;;;23.95;16.42;;;-2.30;99.90;;;;;;4956321;28;20140;-82
2022/12/17 15:34:44;;;;;;;27.07;17.30;;;-2.30;99.90;;;;;;4987582;28;20093;-84
2022/12/17 15:37:11;;;;;;;23.33;16.63;;;-2.30;99.90;;;;;;4991362;28;20774;-82
2022/12/17 15:39:40;;;;;;;25.42;19.63;;;-2.30;99.90;;;;;;4993120;28;20038;-83
2022/12/17 15:44:50;;;;;;;23.00;13.65;;;-2.40;99.90;;;;;;4982551;28;20510;-82
2022/12/17 15:47:16;;;;;;;22.20;13.23;;;-2.40;99.90;;;;;;4993131;28;20030;-85
2022/12/17 15:49:44;;;;;;;22.65;11.32;;;-2.40;99.90;;;;;;4991601;28;20097;-81
2022/12/17 15:52:13;;;;;;;24.43;13.03;;;-2.30;99.90;;;;;;4975410;28;20077;-85
2022/12/17 15:54:41;;;;;;;24.63;14.77;;;-2.40;99.90;;;;;;4998881;28;20545;-84
2022/12/17 15:57:07;;;;;;;25.27;14.73;;;-2.30;99.90;;;;;;4984412;28;20034;-82
2022/12/17 15:59:33;;;;;;;18.80;9.98;;;-2.30;99.90;;;;;;5000975;28;20408;-81
2022/12/17 16:01:58;;;;;;;24.52;14.50;;;-2.30;99.90;;;;;;4989726;28;20102;-82
2022/12/17 16:04:24;;;;;;;25.77;15.40;;;-2.30;99.90;;;;;;4992629;28;20034;-85
2022/12/17 16:06:50;;;;;;;24.88;15.48;;;-2.30;99.90;;;;;;4996196;28;20030;-82
2022/12/17 16:09:16;;;;;;;20.33;13.90;;;-2.30;99.90;;;;;;4995495;28;20026;-82
2022/12/17 16:11:42;;;;;;;24.65;16.30;;;-2.20;99.90;;;;;;4982069;28;20019;-82
2022/12/17 16:14:08;;;;;;;25.33;14.85;;;-2.20;99.90;;;;;;4978612;28;20019;-88
2022/12/17 16:16:34;;;;;;;17.13;11.75;;;-2.20;99.90;;;;;;4959443;28;20084;-85
2022/12/17 16:19:00;;;;;;;14.23;8.38;;;-2.20;99.90;;;;;;4997639;28;20023;-83
2022/12/17 16:21:26;;;;;;;26.88;14.38;;;-2.20;99.90;;;;;;4980501;28;20030;-85
2022/12/17 16:23:55;;;;;;;24.88;15.75;;;-2.20;99.90;;;;;;4996087;28;20093;-82
2022/12/17 16:26:20;;;;;;;24.15;14.65;;;-2.20;99.90;;;;;;4995868;28;20388;-83
2022/12/17 16:28:46;;;;;;;21.50;14.98;;;-2.30;99.90;;;;;;4964795;28;20022;-83
2022/12/17 16:31:14;;;;;;;21.88;13.13;;;-2.30;99.90;;;;;;4996509;28;20029;-82
2022/12/17 16:33:41;;;;;;;29.48;18.08;;;-2.30;99.90;;;;;;4994144;28;20034;-84
2022/12/17 16:36:11;;;;;;;29.25;19.25;;;-2.30;99.90;;;;;;4978061;28;20030;-82
2022/12/17 16:38:48;;;;;;;21.15;14.30;;;-2.30;99.90;;;;;;4974011;28;20065;-83
2022/12/17 16:41:15;;;;;;;;;;;-2.40;99.90;;;;;;4966186;28;20069;-83
2022/12/17 16:43:44;;;;;;;26.23;15.35;;;-2.40;99.90;;;;;;4977577;28;20278;-81
2022/12/17 16:46:25;;;;;;;28.85;14.85;;;-2.50;99.90;;;;;;4994664;28;20114;-81
2022/12/17 16:48:52;;;;;;;26.10;15.75;;;-2.50;99.90;;;;;;4996934;28;20030;-82
2022/12/17 16:51:22;;;;;;;33.38;19.13;;;-2.50;99.90;;;;;;4977608;28;20492;-84
2022/12/17 16:53:48;;;;;;;25.17;13.82;;;-2.40;99.90;;;;;;4977545;28;20129;-85
2022/12/17 16:56:23;;;;;;;30.30;18.17;;;-2.50;99.90;;;;;;4977376;28;20109;-83
2022/12/17 16:58:49;;;;;;;32.88;20.63;;;-2.40;99.90;;;;;;4978366;28;20034;-82
2022/12/17 17:01:24;;;;;;;29.50;22.97;;;-2.40;99.90;;;;;;4977099;28;20026;-85
2022/12/17 17:03:50;;;;;;;31.58;18.88;;;-2.50;99.90;;;;;;4984659;28;20031;-84
2022/12/17 17:06:17;;;;;;;30.30;17.30;;;-2.50;99.90;;;;;;5006656;28;20476;-81
2022/12/17 17:08:44;;;;;;;26.65;18.05;;;-2.50;99.90;;;;;;4992355;28;20018;-83
2022/12/17 17:11:18;;;;;;;17.25;11.10;;;-2.50;99.90;;;;;;4984070;28;20029;-86
2022/12/17 17:13:44;;;;;;;24.65;15.38;;;-2.50;99.90;;;;;;4996027;28;20015;-85
2022/12/17 17:16:10;;;;;;;25.85;17.75;;;-2.50;99.90;;;;;;4978719;28;20445;-82
2022/12/17 17:18:37;;;;;;;31.35;19.38;;;-2.50;99.90;;;;;;5003501;28;20046;-86
2022/12/17 17:21:31;;;;;;;31.67;18.07;;;-2.50;99.90;;;;;;4983329;28;20031;-85
2022/12/17 17:24:01;;;;;;;24.88;17.25;;;-2.50;99.90;;;;;;4978512;28;20311;-83
2022/12/17 17:26:30;;;;;;;32.97;20.77;;;-2.50;99.90;;;;;;4994812;28;20030;-84
2022/12/17 17:28:57;;;;;;;33.88;19.35;;;-2.50;99.90;;;;;;4994297;28;20101;-82
2022/12/17 17:31:24;;;;;;;26.85;14.32;;;-2.50;99.90;;;;;;4981443;28;20097;-86
2022/12/17 17:33:51;;;;;;;25.80;16.58;;;-2.50;99.90;;;;;;5007796;28;20089;-83
2022/12/17 17:36:28;;;;;;;30.08;21.17;;;-2.50;99.90;;;;;;5002417;28;20022;-83
2022/12/17 17:38:58;;;;;;;39.85;24.30;;;-2.50;99.90;;;;;;4992258;28;20040;-85
2022/12/17 17:41:26;;;;;;;35.00;20.88;;;-2.50;99.90;;;;;;4978715;28;20107;-88
2022/12/17 17:43:58;;;;;;;33.10;19.08;;;-2.40;99.90;;;;;;4973413;28;20109;-85
2022/12/17 17:46:25;;;;;;;39.40;21.63;;;-2.40;99.90;;;;;;4977770;28;20052;-88
2022/12/17 17:48:54;;;;;;;39.87;22.73;;;-2.40;99.90;;;;;;4978658;28;20058;-87
2022/12/17 17:51:26;;;;;;;32.17;19.35;;;-2.30;99.90;;;;;;4997292;28;20272;-86
2022/12/17 17:53:54;;;;;;;34.17;19.58;;;-2.30;99.90;;;;;;4995195;28;20098;-86
2022/12/17 17:56:25;;;;;;;33.78;23.02;;;-2.30;99.90;;;;;;4994947;28;20026;-85
2022/12/17 17:58:52;;;;;;;30.15;18.67;;;-2.30;99.90;;;;;;4998640;28;20105;-86
2022/12/17 18:01:25;;;;;;;33.22;18.70;;;-2.30;99.90;;;;;;5000949;28;20069;-87
2022/12/17 18:03:51;;;;;;;33.30;20.27;;;-2.30;99.90;;;;;;4991040;28;20027;-84
2022/12/17 18:06:18;;;;;;;31.98;19.45;;;-2.40;99.90;;;;;;4996400;28;20037;-88
2022/12/17 18:08:54;;;;;;;31.70;19.80;;;-2.30;99.90;;;;;;4977661;28;20030;-87
2022/12/17 18:11:21;;;;;;;30.35;18.77;;;-2.40;99.90;;;;;;4975863;28;20033;-87
2022/12/17 18:13:56;;;;;;;27.95;18.55;;;-2.30;99.90;;;;;;4980351;28;20022;-85
2022/12/17 18:16:38;;;;;;;33.35;20.27;;;-2.30;99.90;;;;;;5006818;28;20033;-87
2022/12/17 18:19:13;;;;;;;20.25;10.20;;;-2.40;99.90;;;;;;4994242;28;20543;-86
2022/12/17 18:21:41;;;;;;;26.05;16.48;;;-2.40;99.90;;;;;;4972939;28;20116;-85
2022/12/17 18:24:11;;;;;;;32.95;15.77;;;-2.30;99.90;;;;;;4977631;28;20030;-79
2022/12/17 18:26:41;;;;;;;31.75;20.10;;;-2.30;99.90;;;;;;4976828;28;20089;-85
2022/12/17 18:29:19;;;;;;;34.55;19.55;;;-2.30;99.90;;;;;;4979430;28;20423;-85
2022/12/17 18:31:45;;;;;;;32.20;20.05;;;-2.30;99.90;;;;;;4976282;28;20045;-93
2022/12/17 18:34:17;;;;;;;36.43;23.43;;;-2.40;99.90;;;;;;4993926;28;20046;-86
2022/12/17 18:36:44;;;;;;;39.55;23.98;;;-2.30;99.90;;;;;;4980062;28;20347;-85
2022/12/17 18:39:16;;;;;;;28.53;19.40;;;-2.40;99.90;;;;;;4977597;28;20026;-84
2022/12/17 18:44:29;;;;;;;25.00;15.70;;;-2.50;99.90;;;;;;4988737;28;20121;-85
2022/12/17 18:46:55;;;;;;;;;;;-2.60;99.90;;;;;;4995203;28;20384;-85
2022/12/17 18:49:22;;;;;;;32.78;20.35;;;-2.70;99.90;;;;;;4985132;28;19910;-85
2022/12/17 18:51:49;;;;;;;19.77;11.13;;;-2.60;99.90;;;;;;4994168;28;20030;-90
2022/12/17 18:54:23;;;;;;;21.38;14.80;;;-2.70;99.90;;;;;;4979874;28;20035;-88
2022/12/17 18:56:50;;;;;;;26.35;19.05;;;-2.60;99.90;;;;;;5008720;28;20019;-88
2022/12/17 18:59:19;;;;;;;30.07;18.77;;;-2.50;99.90;;;;;;5013088;28;20026;-90
2022/12/17 19:01:45;;;;;;;26.88;15.38;;;-2.60;99.90;;;;;;5004586;28;20022;-85
2022/12/17 19:04:17;;;;;;;31.98;20.13;;;-2.60;99.90;;;;;;4992659;28;20035;-84
2022/12/17 19:06:44;;;;;;;35.58;19.42;;;-2.60;99.90;;;;;;4979878;28;20057;-83
2022/12/17 19:09:29;;;;;;;38.37;18.70;;;-2.60;99.90;;;;;;4981747;28;20081;-83
2022/12/17 19:11:56;;;;;;;35.25;17.38;;;-2.60;99.90;;;;;;4961553;28;20034;-85
2022/12/17 19:14:23;;;;;;;31.33;17.97;;;-2.50;99.90;;;;;;4999058;28;20030;-83
2022/12/17 19:16:52;;;;;;;30.20;19.13;;;-2.50;99.90;;;;;;4972935;28;20279;-85
2022/12/17 19:19:19;;;;;;;31.73;18.77;;;-2.50;99.90;;;;;;4993312;28;20038;-85
2022/12/17 19:21:45;;;;;;;30.00;19.27;;;-2.60;99.90;;;;;;4984865;28;20022;-84
2022/12/17 19:24:13;;;;;;;30.45;19.42;;;-2.60;99.90;;;;;;4994861;28;20037;-83
2022/12/17 19:26:39;;;;;;;29.45;20.17;;;-2.50;99.90;;;;;;4991025;28;20030;-84
2022/12/17 19:29:07;;;;;;;22.90;14.27;;;-2.50;99.90;;;;;;4975648;28;20029;-85
2022/12/17 19:31:34;;;;;;;25.48;16.90;;;-2.40;99.90;;;;;;4995788;28;20027;-82
2022/12/17 19:34:02;;;;;;;20.15;13.05;;;-2.40;99.90;;;;;;4996219;28;20050;-83
2022/12/17 19:36:29;;;;;;;31.83;18.23;;;-2.40;99.90;;;;;;4996138;28;20037;-83
2022/12/17 19:39:07;;;;;;;26.48;16.63;;;-2.40;99.90;;;;;;4978877;28;20026;-84
2022/12/17 19:41:33;;;;;;;29.27;16.58;;;-2.40;99.90;;;;;;4981915;28;20140;-82
2022/12/17 19:44:03;;;;;;;32.45;20.85;;;-2.40;99.90;;;;;;4986599;28;20071;-84
2022/12/17 19:46:33;;;;;;;20.55;12.30;;;-2.40;99.90;;;;;;4975582;28;20069;-85
2022/12/17 19:49:00;;;;;;;22.35;14.55;;;-2.50;99.90;;;;;;4976982;28;20077;-82
2022/12/17 19:51:27;;;;;;;22.88;18.25;;;-2.40;99.90;;;;;;4976905;28;20030;-83
2022/12/17 19:53:54;;;;;;;27.15;18.75;;;-2.50;99.90;;;;;;4975940;28;20031;-83
2022/12/17 19:56:26;;;;;;;24.23;11.10;;;-2.50;99.90;;;;;;4991453;28;20031;-83
2022/12/17 19:58:55;;;;;;;28.92;16.20;;;-2.50;99.90;;;;;;4977778;28;20031;-85
2022/12/17 20:01:24;;;;;;;24.48;15.90;;;-2.50;99.90;;;;;;4980930;28;20111;-82
2022/12/17 20:03:50;;;;;;;24.45;16.33;;;-2.60;99.90;;;;;;4980175;28;20540;-82
2022/12/17 20:06:18;;;;;;;24.40;14.27;;;-2.60;99.90;;;;;;4974477;28;20625;-83
2022/12/17 20:08:46;;;;;;;27.05;17.65;;;-2.60;99.90;;;;;;4976325;28;20257;-84
2022/12/17 20:14:21;;;;;;;25.13;16.60;;;-2.50;99.90;;;;;;4957306;28;20034;-83
2022/12/17 20:16:48;;;;;;;;;;;-2.50;99.90;;;;;;4975615;28;20118;-83
2022/12/17 20:19:17;;;;;;;27.08;16.00;;;-2.50;99.90;;;;;;4976541;28;20287;-84
2022/12/17 20:21:43;;;;;;;27.27;17.92;;;-2.60;99.90;;;;;;4980088;28;20050;-83
2022/12/17 20:24:10;;;;;;;19.13;14.18;;;-2.50;99.90;;;;;;4971981;28;20074;-84
2022/12/17 20:26:37;;;;;;;23.55;15.15;;;-2.60;99.90;;;;;;4989577;28;20033;-85
2022/12/17 20:29:04;;;;;;;24.13;16.20;;;-2.50;99.90;;;;;;4975911;28;20034;-87
2022/12/17 20:31:30;;;;;;;28.40;15.48;;;-2.50;99.90;;;;;;4973667;28;20027;-82
2022/12/17 20:33:57;;;;;;;22.30;16.45;;;-2.50;99.90;;;;;;4981108;28;20114;-83
2022/12/17 20:36:23;;;;;;;27.08;16.58;;;-2.50;99.90;;;;;;4977446;28;20023;-83
2022/12/17 20:38:49;;;;;;;25.75;15.10;;;-2.50;99.90;;;;;;4976404;28;20485;-84
2022/12/17 20:41:21;;;;;;;30.70;18.35;;;-2.60;99.90;;;;;;4974224;28;20030;-83
2022/12/17 20:43:47;;;;;;;29.67;17.67;;;-2.60;99.90;;;;;;4976041;28;20436;-85
2022/12/17 20:46:14;;;;;;;27.30;16.98;;;-2.60;99.90;;;;;;4976779;28;20059;-90
2022/12/17 20:48:45;;;;;;;29.13;19.40;;;-2.60;99.90;;;;;;4995232;28;20015;-88
2022/12/17 20:51:13;;;;;;;24.05;14.48;;;-2.60;99.90;;;;;;4998446;28;20019;-91
2022/12/17 20:53:43;;;;;;;31.55;18.42;;;-2.60;99.90;;;;;;4994163;28;20035;-92
2022/12/17 20:56:11;;;;;;;24.25;17.23;;;-2.60;99.90;;;;;;4985946;28;20374;-86
2022/12/17 20:58:38;;;;;;;30.70;17.67;;;-2.60;99.90;;;;;;4980675;28;20031;-81
2022/12/17 21:01:08;;;;;;;28.05;16.55;;;-2.60;99.90;;;;;;4974829;28;20035;-84
2022/12/17 21:03:35;;;;;;;25.85;16.40;;;-2.60;99.90;;;;;;4974830;28;20030;-83
2022/12/17 21:06:05;;;;;;;26.77;17.80;;;-2.60;99.90;;;;;;4975546;28;20037;-82
2022/12/17 21:08:31;;;;;;;28.83;18.52;;;-2.60;99.90;;;;;;4979771;28;20264;-84
2022/12/17 21:10:57;;;;;;;24.17;15.77;;;-2.60;99.90;;;;;;4981538;28;20648;-88
2022/12/17 21:13:29;;;;;;;26.33;16.75;;;-2.60;99.90;;;;;;4975445;28;20027;-86
2022/12/17 21:15:57;;;;;;;29.23;15.25;;;-2.60;99.90;;;;;;4975872;28;20117;-86
2022/12/17 21:18:23;;;;;;;27.70;18.33;;;-2.60;99.90;;;;;;4974834;28;20078;-88
2022/12/17 21:20:58;;;;;;;26.37;16.30;;;-2.60;99.90;;;;;;4976198;28;20053;-86
2022/12/17 21:23:25;;;;;;;24.98;18.63;;;-2.60;99.90;;;;;;4974803;28;20480;-87
2022/12/17 21:26:03;;;;;;;22.75;15.65;;;-2.60;99.90;;;;;;4975487;28;20035;-87
2022/12/17 21:28:29;;;;;;;24.55;12.45;;;-2.60;99.90;;;;;;4974287;28;20377;-87
2022/12/17 21:30:55;;;;;;;26.92;15.25;;;-2.60;99.90;;;;;;4976336;28;20038;-87
2022/12/17 21:33:21;;;;;;;26.50;17.05;;;-2.70;99.90;;;;;;4977648;28;20023;-88
2022/12/17 21:35:48;;;;;;;28.48;16.98;;;-2.70;99.90;;;;;;4976773;28;20099;-88
2022/12/17 21:38:14;;;;;;;27.17;18.27;;;-2.70;99.90;;;;;;4973663;28;20081;-84
2022/12/17 21:40:40;;;;;;;23.58;14.98;;;-2.70;99.90;;;;;;4973954;28;20127;-87
2022/12/17 21:43:06;;;;;;;22.80;16.02;;;-2.60;99.90;;;;;;4975067;28;20026;-87
2022/12/17 21:45:37;;;;;;;23.33;14.65;;;-2.60;99.90;;;;;;4973922;28;20051;-86
2022/12/17 21:48:04;;;;;;;26.75;15.70;;;-2.60;99.90;;;;;;4974243;28;20019;-88
2022/12/17 21:50:30;;;;;;;22.13;15.20;;;-2.60;99.90;;;;;;4973610;28;20117;-87
2022/12/17 21:52:56;;;;;;;22.45;14.93;;;-2.60;99.90;;;;;;4975056;28;20497;-86
2022/12/17 21:55:22;;;;;;;23.38;16.27;;;-2.60;99.90;;;;;;4973698;28;20041;-86
2022/12/17 21:57:48;;;;;;;23.42;14.27;;;-2.70;99.90;;;;;;4974786;28;20094;-85
2022/12/17 22:00:14;;;;;;;24.00;13.90;;;-2.70;99.90;;;;;;4975032;28;20029;-87
2022/12/17 22:02:40;;;;;;;24.88;17.90;;;-2.60;99.90;;;;;;4974514;28;20021;-84
2022/12/17 22:05:06;;;;;;;24.25;15.32;;;-2.60;99.90;;;;;;4974301;28;20553;-84
2022/12/17 22:07:32;;;;;;;22.95;14.57;;;-2.60;99.90;;;;;;4973693;28;20438;-86
2022/12/17 22:09:58;;;;;;;23.85;15.23;;;-2.50;99.90;;;;;;4971491;28;20480;-84
2022/12/17 22:15:09;;;;;;;22.42;14.55;;;-2.60;99.90;;;;;;4977844;28;20420;-82
2022/12/17 22:17:36;;;;;;;20.23;13.57;;;-2.60;99.90;;;;;;4979361;28;20023;-83
2022/12/17 22:20:04;;;;;;;25.60;19.00;;;-2.60;99.90;;;;;;4975876;28;20058;-83
2022/12/17 22:22:30;;;;;;;25.35;16.27;;;-2.60;99.90;;;;;;4967762;28;20049;-83
2022/12/17 22:24:55;;;;;;;22.60;13.15;;;-2.60;99.90;;;;;;4973972;28;20039;-83
2022/12/17 22:27:22;;;;;;;23.00;12.88;;;-2.60;99.90;;;;;;4973124;28;20061;-83
2022/12/17 22:35:16;;;;;;;22.05;13.98;;;-2.60;99.90;;;;;;4981737;28;20128;-82
2022/12/17 22:37:42;;;;;;;20.10;13.75;;;-2.60;99.90;;;;;;4977445;28;20031;-83
2022/12/17 22:40:09;;;;;;;21.50;13.98;;;-2.60;99.90;;;;;;4974308;28;20265;-82
2022/12/17 22:45:19;;;;;;;22.42;15.20;;;-2.60;99.90;;;;;;4984903;28;20199;-82
2022/12/17 22:47:45;;;;;;;19.40;13.00;;;-2.60;99.90;;;;;;4977117;28;20118;-83
2022/12/17 22:50:11;;;;;;;22.50;14.02;;;-2.60;99.90;;;;;;4993951;28;20507;-82
2022/12/17 22:52:37;;;;;;;23.52;13.27;;;-2.60;99.90;;;;;;4971048;28;20089;-82
2022/12/17 22:55:03;;;;;;;20.23;12.15;;;-2.50;99.90;;;;;;4994050;28;20022;-83
2022/12/17 22:57:32;;;;;;;22.00;16.02;;;-2.60;99.90;;;;;;4976862;28;20105;-81
2022/12/17 22:59:58;;;;;;;19.92;11.85;;;-2.60;99.90;;;;;;4999208;28;20061;-81
2022/12/17 23:02:24;;;;;;;22.25;16.63;;;-2.70;99.90;;;;;;4982180;28;20023;-81
2022/12/17 23:04:49;;;;;;;19.20;13.18;;;-2.70;99.90;;;;;;4998686;28;20591;-79
2022/12/17 23:07:15;;;;;;;21.85;14.93;;;-2.70;99.90;;;;;;4980376;28;20034;-80
2022/12/17 23:09:41;;;;;;;23.42;14.82;;;-2.80;99.90;;;;;;4990487;28;20023;-79
2022/12/17 23:14:51;;;;;;;24.35;15.68;;;-2.80;99.90;;;;;;4996940;28;20037;-80
2022/12/17 23:17:22;;;;;;;29.80;15.38;;;-2.80;99.90;;;;;;4996871;28;20026;-81
2022/12/17 23:19:48;;;;;;;20.52;14.15;;;-2.80;99.90;;;;;;4996448;28;20031;-80
2022/12/17 23:22:14;;;;;;;21.27;12.20;;;-2.80;99.90;;;;;;4978840;28;20049;-81
2022/12/17 23:24:40;;;;;;;25.27;13.38;;;-2.80;99.90;;;;;;4996515;28;20453;-82
2022/12/17 23:27:06;;;;;;;17.23;8.73;;;-2.80;99.90;;;;;;4978420;28;20026;-82
2022/12/17 23:29:32;;;;;;;20.10;13.48;;;-2.80;99.90;;;;;;4968821;28;20086;-82
2022/12/17 23:31:57;;;;;;;22.52;15.77;;;-2.80;99.90;;;;;;4996577;28;20022;-82
2022/12/17 23:34:23;;;;;;;22.08;13.25;;;-2.80;99.90;;;;;;4989293;28;20451;-82
2022/12/17 23:36:49;;;;;;;26.10;13.45;;;-2.80;99.90;;;;;;4994149;28;20021;-84
2022/12/17 23:39:15;;;;;;;20.13;13.13;;;-2.80;99.90;;;;;;4995697;28;20376;-82
2022/12/17 23:41:41;;;;;;;19.33;11.38;;;-2.80;99.90;;;;;;4979166;28;20113;-81
2022/12/17 23:44:06;;;;;;;26.98;15.18;;;-2.80;99.90;;;;;;4996339;28;20061;-82
2022/12/17 23:46:33;;;;;;;15.55;10.23;;;-2.80;99.90;;;;;;4974934;28;20138;-84
2022/12/17 23:48:58;;;;;;;24.17;13.90;;;-2.80;99.90;;;;;;4975612;28;20042;-84
2022/12/17 23:51:25;;;;;;;19.23;12.10;;;-2.80;99.90;;;;;;4974094;28;20376;-84
2022/12/17 23:53:51;;;;;;;18.02;11.35;;;-2.80;99.90;;;;;;4975405;28;20023;-83
2022/12/17 23:56:23;;;;;;;20.73;11.98;;;-2.80;99.90;;;;;;4976216;28;20038;-81
2022/12/17 23:58:52;;;;;;;19.80;15.90;;;-2.80;99.90;;;;;;4976288;28;20019;-82
